Quincy, Illinois
Current Conditions -  °F | °C
As of 2:54 PM on Tuesday 27 Jan 2015 (Local Time) from KUIN Reporting Station
Overcast Overcast  
Wind Chill: 31°   Ceiling: 2500
Heat Index: 38°   Visibility: 7mi
Dew Point: 31°   Wind: 9mph
Humidity: 76%   Direction: 50°NE
Pressure: 30.18"   Gusts: NA
Location:  39.94°N, 91.39°W
Report Text: KUIN 272054Z AUTO 05008KT 7SM OVC025 03/M01 A3018 RMK AO2 SLP224 T00331006 53004
Loading
Personal Weather Stations






























Interactive Weather Map New forecast layout! Learn more

10-Day Weather Forecast

Advertisements
Track Severe Weather on mobile